Time;durP1;ratioP1;P1;durP2;ratioP2;P2;SDS_P1;SDS_P2;PMS_P1;PMS_P2;Temp;Humidity;BMP_temperature;BMP_pressure;BME280_temperature;BME280_humidity;BME280_pressure;Samples;Min_cycle;Max_cycle;Signal;HPM_P1;HPM_P2
2021/12/23 00:01:44;;;;;;;39.00;21.65;;;;;;;3.42;61.54;102330.91;5032089;28;20045;-64
2021/12/23 00:04:12;;;;;;;38.10;21.83;;;;;;;3.40;61.54;102324.84;5032702;28;20053;-68
2021/12/23 00:06:41;;;;;;;37.08;21.08;;;;;;;3.40;61.40;102320.53;5033500;28;20393;-64
2021/12/23 00:09:08;;;;;;;31.38;19.17;;;;;;;3.40;61.47;102314.47;5033900;28;20496;-69
2021/12/23 00:11:36;;;;;;;33.45;20.42;;;;;;;3.40;61.45;102310.16;5033653;28;20550;-70
2021/12/23 00:14:05;;;;;;;33.97;19.23;;;;;;;3.38;61.44;102322.25;5033466;28;20050;-70
2021/12/23 00:24:41;;;;;;;;;;;;;;;3.32;61.40;102309.28;5033413;28;20060;-64
2021/12/23 00:27:08;;;;;;;32.55;20.80;;;;;;;3.34;61.29;102306.69;5032858;28;19924;-65
2021/12/23 00:29:35;;;;;;;34.55;21.35;;;;;;;3.31;61.64;102306.69;5032891;28;20046;-63
2021/12/23 00:32:05;;;;;;;34.72;20.00;;;;;;;3.22;61.60;102302.38;5032871;28;20049;-63
2021/12/23 00:34:32;;;;;;;34.58;21.17;;;;;;;3.16;61.81;102299.78;5032817;28;20049;-67
2021/12/23 00:37:01;;;;;;;38.70;22.73;;;;;;;3.14;61.82;102311.91;5031424;28;20057;-64
2021/12/23 00:39:29;;;;;;;34.40;21.35;;;;;;;3.07;62.14;102311.91;5032982;28;20501;-69
2021/12/23 00:42:05;;;;;;;33.03;22.80;;;;;;;3.00;62.13;102311.91;5032677;28;20045;-64
2021/12/23 00:44:33;;;;;;;39.67;22.45;;;;;;;2.92;62.24;102307.56;5032728;28;20046;-64
2021/12/23 00:47:00;;;;;;;32.08;22.15;;;;;;;2.86;62.25;102310.16;5032518;28;20053;-64
2021/12/23 00:49:26;;;;;;;33.35;22.50;;;;;;;2.80;62.30;102306.69;5032858;28;20068;-69
2021/12/23 00:51:54;;;;;;;30.85;21.45;;;;;;;2.77;62.22;102308.41;5032299;28;20517;-69
2021/12/23 00:54:21;;;;;;;33.10;23.40;;;;;;;2.78;62.23;102302.38;5031681;28;20054;-64
2021/12/23 00:56:49;;;;;;;36.05;23.25;;;;;;;2.76;62.19;102296.31;5032330;28;20103;-65
2021/12/23 00:59:16;;;;;;;31.27;23.55;;;;;;;2.73;62.01;102295.44;5032396;28;20049;-64
2021/12/23 01:01:43;;;;;;;34.20;23.08;;;;;;;2.74;61.87;102299.78;5032468;28;20049;-67
2021/12/23 01:04:10;;;;;;;38.00;24.20;;;;;;;2.71;62.14;102299.78;5031897;28;20049;-67
2021/12/23 01:06:36;;;;;;;35.55;23.98;;;;;;;2.73;62.02;102303.22;5032249;28;20046;-64
2021/12/23 01:09:03;;;;;;;32.95;23.73;;;;;;;2.75;61.76;102302.34;5032095;28;20053;-69
2021/12/23 01:11:31;;;;;;;34.97;23.95;;;;;;;2.67;62.00;102313.59;5031670;28;20046;-64
2021/12/23 01:14:02;;;;;;;36.65;24.45;;;;;;;2.70;61.89;102314.44;5032192;28;20560;-64
2021/12/23 01:16:48;;;;;;;38.78;24.92;;;;;;;2.71;62.05;102312.75;5032308;28;20046;-64
2021/12/23 01:19:18;;;;;;;37.90;24.98;;;;;;;2.68;62.08;102308.41;5032298;28;20103;-69
2021/12/23 01:21:45;;;;;;;30.05;22.50;;;;;;;2.56;62.65;102309.22;5031962;28;20103;-64
2021/12/23 01:24:12;;;;;;;27.98;21.63;;;;;;;2.58;62.76;102306.66;5032528;28;20049;-64
2021/12/23 01:26:39;;;;;;;27.17;21.52;;;;;;;2.58;62.47;102304.09;5031449;28;20437;-64
2021/12/23 01:29:06;;;;;;;29.33;21.05;;;;;;;2.59;62.67;102306.66;5032427;28;20045;-68
2021/12/23 01:31:34;;;;;;;33.65;20.08;;;;;;;2.39;63.03;102306.63;5032233;28;20056;-63
2021/12/23 01:34:02;;;;;;;29.27;19.13;;;;;;;2.29;63.54;102310.03;5032226;28;20064;-64
2021/12/23 01:36:29;;;;;;;31.63;18.75;;;;;;;2.25;63.80;102311.75;5032140;28;20045;-69
2021/12/23 01:38:56;;;;;;;29.23;20.38;;;;;;;2.24;63.75;102307.44;5032035;28;20391;-64
2021/12/23 01:41:23;;;;;;;28.02;20.60;;;;;;;2.20;63.84;102304.84;5032262;28;20049;-64
2021/12/23 01:43:52;;;;;;;29.13;19.67;;;;;;;2.19;64.01;102305.69;5024186;28;20050;-64
2021/12/23 01:46:21;;;;;;;29.90;19.92;;;;;;;2.28;63.79;102301.38;5025842;28;20083;-63
2021/12/23 01:48:49;;;;;;;26.50;19.70;;;;;;;2.36;63.69;102301.44;5031894;28;20231;-64
2021/12/23 01:51:16;;;;;;;33.40;20.20;;;;;;;2.26;64.03;102299.66;5031922;28;20052;-66
2021/12/23 01:53:43;;;;;;;29.33;19.90;;;;;;;2.23;64.46;102295.34;5031310;28;20049;-64
2021/12/23 01:56:10;;;;;;;31.15;19.48;;;;;;;2.14;64.76;102291.88;5031676;28;20045;-64
2021/12/23 01:58:38;;;;;;;27.63;19.35;;;;;;;2.19;64.73;102284.97;5030993;28;20103;-70
2021/12/23 02:01:06;;;;;;;26.42;19.15;;;;;;;2.25;64.59;102285.00;5031822;28;20482;-64
2021/12/23 02:03:33;;;;;;;28.42;19.05;;;;;;;2.18;64.84;102283.25;5032108;28;20053;-70
2021/12/23 02:06:00;;;;;;;28.42;19.67;;;;;;;2.16;65.00;102285.84;5031670;28;20103;-65
2021/12/23 02:08:38;;;;;;;29.75;19.70;;;;;;;2.24;64.73;102284.13;5032023;28;20406;-69
2021/12/23 02:11:10;;;;;;;29.67;20.25;;;;;;;2.16;65.06;102283.25;5031675;28;20042;-64
2021/12/23 02:13:39;;;;;;;28.25;19.55;;;;;;;2.18;65.02;102284.09;5031844;28;20050;-64
2021/12/23 02:16:06;;;;;;;27.33;19.75;;;;;;;2.19;65.25;102280.66;5033328;28;20506;-69
2021/12/23 02:18:33;;;;;;;40.83;20.38;;;;;;;2.20;65.03;102277.22;5035927;28;20409;-63
2021/12/23 02:20:59;;;;;;;34.47;20.88;;;;;;;2.16;65.43;102277.19;5035560;28;20452;-69
2021/12/23 02:23:26;;;;;;;29.10;20.35;;;;;;;2.22;65.31;102279.78;5035600;28;20120;-63
2021/12/23 02:25:53;;;;;;;41.15;20.52;;;;;;;2.10;65.42;102276.31;5035562;28;20053;-64
2021/12/23 02:28:21;;;;;;;30.45;19.88;;;;;;;2.20;65.46;102273.75;5035590;28;20045;-64
2021/12/23 02:30:51;;;;;;;27.30;19.73;;;;;;;2.27;65.33;102260.84;5035558;28;20053;-69
2021/12/23 02:33:21;;;;;;;28.63;18.70;;;;;;;2.24;65.52;102267.72;5034642;28;20049;-64
2021/12/23 02:35:48;;;;;;;30.25;18.27;;;;;;;2.34;65.22;102256.53;5035381;28;20045;-64
2021/12/23 02:38:15;;;;;;;29.58;19.42;;;;;;;2.24;65.58;102255.63;5035179;28;20060;-65
2021/12/23 02:40:43;;;;;;;31.98;19.48;;;;;;;2.19;65.96;102262.53;5026253;28;20057;-63
2021/12/23 02:43:19;;;;;;;32.60;19.13;;;;;;;2.26;65.80;102253.03;5031146;28;20053;-69
2021/12/23 02:45:48;;;;;;;26.17;19.30;;;;;;;2.24;65.68;102245.28;5035141;28;20049;-64
2021/12/23 02:48:23;;;;;;;25.40;18.30;;;;;;;2.26;66.08;102248.75;5035131;28;20505;-64
2021/12/23 02:50:53;;;;;;;26.50;18.05;;;;;;;2.26;65.92;102247.84;5034068;28;20077;-63
2021/12/23 02:53:20;;;;;;;25.67;18.80;;;;;;;2.27;65.66;102239.22;5034967;28;20115;-66
2021/12/23 02:55:48;;;;;;;34.88;19.25;;;;;;;2.26;65.82;102242.66;5035137;28;20037;-69
2021/12/23 02:58:15;;;;;;;39.65;19.38;;;;;;;2.23;66.08;102245.28;5034922;28;20049;-64
2021/12/23 03:00:44;;;;;;;31.77;18.48;;;;;;;2.30;66.02;102244.44;5034651;28;20080;-64
2021/12/23 03:03:11;;;;;;;27.60;18.05;;;;;;;2.28;66.34;102238.38;5033964;28;20057;-64
2021/12/23 03:05:37;;;;;;;27.27;17.60;;;;;;;2.29;66.01;102235.78;5033538;28;20054;-69
2021/12/23 03:08:04;;;;;;;27.67;18.83;;;;;;;2.30;65.81;102241.84;5034229;28;20089;-67
2021/12/23 03:10:31;;;;;;;27.85;18.67;;;;;;;2.15;66.76;102231.44;5034819;28;20049;-69
2021/12/23 03:12:57;;;;;;;30.30;18.55;;;;;;;2.21;66.17;102234.03;5034498;28;20045;-68
2021/12/23 03:15:24;;;;;;;25.13;17.75;;;;;;;2.15;66.18;102240.06;5034711;28;20571;-64
2021/12/23 03:17:51;;;;;;;29.80;17.23;;;;;;;2.11;66.43;102233.16;5034710;28;20049;-63
2021/12/23 03:20:17;;;;;;;25.23;17.60;;;;;;;2.05;66.90;102234.00;5034807;28;20046;-69
2021/12/23 03:22:44;;;;;;;26.77;17.10;;;;;;;2.15;66.55;102234.03;5033401;28;20062;-64
2021/12/23 03:25:11;;;;;;;24.70;16.77;;;;;;;2.15;66.80;102224.53;5034264;28;20252;-63
2021/12/23 03:27:37;;;;;;;25.30;17.50;;;;;;;2.16;66.53;102225.38;5033901;28;20050;-69
2021/12/23 03:30:06;;;;;;;25.73;17.48;;;;;;;2.08;66.70;102223.66;5034285;28;20045;-63
2021/12/23 03:32:32;;;;;;;29.10;16.98;;;;;;;2.04;66.75;102218.47;5034377;28;20045;-63
2021/12/23 03:34:59;;;;;;;26.67;18.23;;;;;;;1.98;66.78;102223.63;5034261;28;20126;-64
2021/12/23 03:37:26;;;;;;;27.83;18.52;;;;;;;1.96;67.22;102215.84;5034085;28;20075;-64
2021/12/23 03:39:53;;;;;;;27.05;17.23;;;;;;;1.90;67.19;102216.69;5033232;28;20051;-63
2021/12/23 03:42:20;;;;;;;25.60;17.52;;;;;;;1.83;67.46;102214.06;5034317;28;20084;-69
2021/12/23 03:44:49;;;;;;;28.90;18.67;;;;;;;1.92;67.35;102211.53;5033892;28;20509;-63
2021/12/23 03:47:16;;;;;;;27.05;18.10;;;;;;;1.94;67.18;102207.22;5034213;28;20053;-64
2021/12/23 03:49:42;;;;;;;24.65;16.67;;;;;;;1.92;67.05;102203.78;5034050;28;20049;-63
2021/12/23 03:52:09;;;;;;;21.98;16.45;;;;;;;1.85;67.43;102207.19;5033831;28;20049;-64
2021/12/23 03:54:36;;;;;;;26.85;17.65;;;;;;;1.83;67.54;102209.78;5034038;28;20053;-69
2021/12/23 03:57:03;;;;;;;23.20;15.65;;;;;;;1.90;67.31;102202.88;5029224;28;20076;-64
2021/12/23 03:59:30;;;;;;;22.17;16.55;;;;;;;1.89;67.33;102201.16;5033969;28;20063;-64
2021/12/23 04:01:56;;;;;;;22.77;16.75;;;;;;;1.96;67.37;102200.31;5032825;28;20053;-63
2021/12/23 04:04:23;;;;;;;27.90;17.67;;;;;;;1.91;67.29;102197.72;5029082;28;20042;-64
2021/12/23 04:06:51;;;;;;;25.08;17.38;;;;;;;1.96;67.52;102201.16;5030881;28;20099;-64
2021/12/23 04:09:19;;;;;;;23.88;17.02;;;;;;;1.94;67.43;102196.84;5030181;28;20049;-64
2021/12/23 04:11:46;;;;;;;26.48;17.52;;;;;;;1.94;67.24;102200.31;5030608;28;20048;-63
2021/12/23 04:14:13;;;;;;;24.38;16.85;;;;;;;1.95;66.78;102193.41;5029244;28;20103;-66
2021/12/23 04:16:39;;;;;;;30.35;17.25;;;;;;;1.97;66.92;102199.47;5030083;28;20049;-64
2021/12/23 04:19:09;;;;;;;26.02;17.23;;;;;;;1.94;67.32;102199.44;5029596;28;20567;-64
2021/12/23 04:21:37;;;;;;;28.33;17.40;;;;;;;1.79;67.39;102195.06;5030042;28;20041;-63
2021/12/23 04:24:05;;;;;;;24.80;17.48;;;;;;;1.85;67.11;102189.06;5029832;28;20053;-65
2021/12/23 04:26:32;;;;;;;26.20;16.88;;;;;;;1.94;66.98;102192.56;5030070;28;20053;-64
2021/12/23 04:28:59;;;;;;;29.15;18.40;;;;;;;1.78;67.41;102194.22;5028918;28;20567;-65
2021/12/23 04:31:25;;;;;;;29.27;18.40;;;;;;;1.86;67.18;102198.56;5029823;28;20042;-63
2021/12/23 04:33:54;;;;;;;31.77;18.50;;;;;;;1.90;66.74;102192.53;5029727;28;20041;-64
2021/12/23 04:36:25;;;;;;;28.05;18.52;;;;;;;1.82;67.29;102199.44;5029787;28;20072;-64
2021/12/23 04:38:53;;;;;;;28.30;18.05;;;;;;;1.89;67.03;102198.56;5028571;28;20068;-63
2021/12/23 04:41:21;;;;;;;24.33;17.08;;;;;;;1.86;67.20;102206.34;5029807;28;20047;-63
2021/12/23 04:43:48;;;;;;;24.70;18.02;;;;;;;1.91;66.84;102194.28;5029557;28;20433;-68
2021/12/23 04:46:15;;;;;;;29.25;18.02;;;;;;;1.94;66.74;102202.03;5028982;28;20049;-64
2021/12/23 04:48:44;;;;;;;24.67;17.90;;;;;;;1.91;66.84;102204.63;5029596;28;20053;-63
2021/12/23 04:51:12;;;;;;;26.95;17.10;;;;;;;1.82;66.94;102200.28;5029680;28;20045;-64
2021/12/23 04:53:39;;;;;;;30.38;18.42;;;;;;;1.82;67.04;102196.84;5029150;28;20083;-64
2021/12/23 04:56:06;;;;;;;28.83;17.83;;;;;;;1.89;66.73;102190.81;5029391;28;20053;-64
2021/12/23 04:58:33;;;;;;;25.08;18.05;;;;;;;1.91;66.60;102181.31;5028921;28;20056;-64
2021/12/23 05:01:00;;;;;;;26.58;18.77;;;;;;;1.95;66.66;102180.47;5028934;28;20080;-64
2021/12/23 05:03:27;;;;;;;25.45;17.65;;;;;;;1.89;66.91;102186.50;5028304;28;20045;-64
2021/12/23 05:05:53;;;;;;;25.65;17.80;;;;;;;1.84;66.69;102180.44;5029004;28;20060;-63
2021/12/23 05:08:20;;;;;;;26.80;17.92;;;;;;;1.83;66.94;102177.84;5029346;28;20107;-63
2021/12/23 05:10:47;;;;;;;25.55;17.42;;;;;;;1.86;66.97;102180.44;5029115;28;20050;-63
2021/12/23 05:13:14;;;;;;;24.70;18.40;;;;;;;1.93;66.54;102174.41;5029233;28;20041;-64
2021/12/23 05:15:41;;;;;;;27.83;17.98;;;;;;;1.88;66.77;102171.81;5029163;28;20049;-64
2021/12/23 05:18:09;;;;;;;28.92;18.95;;;;;;;1.91;66.75;102173.56;5029053;28;20481;-63
2021/12/23 05:20:36;;;;;;;30.50;19.75;;;;;;;1.91;66.68;102171.81;5028485;28;20406;-63
2021/12/23 05:23:03;;;;;;;26.98;17.77;;;;;;;1.93;66.76;102171.81;5028684;28;20042;-63
2021/12/23 05:25:30;;;;;;;31.05;19.05;;;;;;;1.84;66.62;102170.09;5028993;28;20498;-63
2021/12/23 05:27:58;;;;;;;33.83;19.85;;;;;;;1.81;66.96;102174.41;5028888;28;20504;-63
2021/12/23 05:30:25;;;;;;;30.13;19.85;;;;;;;1.85;66.92;102173.53;5029253;28;20125;-64
2021/12/23 05:32:52;;;;;;;29.02;19.48;;;;;;;1.81;66.84;102162.31;5028873;28;20049;-63
2021/12/23 05:35:21;;;;;;;31.98;20.23;;;;;;;1.79;67.19;102167.50;5028001;28;20037;-69
2021/12/23 05:37:48;;;;;;;32.30;20.25;;;;;;;1.82;66.95;102176.97;5028590;28;20049;-63
2021/12/23 05:40:17;;;;;;;29.10;18.30;;;;;;;1.81;67.19;102177.00;5028621;28;20201;-63
2021/12/23 05:42:45;;;;;;;31.85;19.95;;;;;;;1.83;66.65;102173.53;5027611;28;20409;-64
2021/12/23 05:45:12;;;;;;;32.00;19.48;;;;;;;1.85;67.12;102170.94;5028798;28;20045;-69
2021/12/23 05:47:39;;;;;;;32.90;20.75;;;;;;;1.89;67.00;102175.28;5028877;28;20041;-63
2021/12/23 05:50:08;;;;;;;31.52;20.15;;;;;;;1.96;66.81;102169.25;5028531;28;20053;-64
2021/12/23 05:52:35;;;;;;;30.23;19.55;;;;;;;1.99;66.83;102165.81;5028181;28;20119;-64
2021/12/23 05:55:05;;;;;;;30.60;20.38;;;;;;;1.94;67.00;102168.38;5028062;28;20053;-63
2021/12/23 05:57:32;;;;;;;30.02;19.50;;;;;;;1.98;66.95;102169.25;5028480;28;20050;-63
2021/12/23 06:00:00;;;;;;;33.17;20.52;;;;;;;2.05;66.72;102171.84;5028279;28;20046;-61
2021/12/23 06:02:27;;;;;;;29.80;18.60;;;;;;;2.06;66.81;102178.78;5028577;28;20068;-62
2021/12/23 06:04:53;;;;;;;29.25;19.38;;;;;;;2.06;66.63;102178.78;5028557;28;20505;-62
2021/12/23 06:07:21;;;;;;;30.55;19.83;;;;;;;2.07;66.75;102175.31;5028310;28;20054;-61
2021/12/23 06:09:48;;;;;;;33.60;18.90;;;;;;;2.06;66.79;102171.00;5028083;28;20072;-61
2021/12/23 06:12:15;;;;;;;27.77;18.23;;;;;;;2.07;67.18;102174.44;5028505;28;20041;-62
2021/12/23 06:14:41;;;;;;;30.52;18.25;;;;;;;2.08;66.93;102176.16;5030135;28;20057;-62
2021/12/23 06:17:08;;;;;;;29.45;18.25;;;;;;;2.10;66.83;102175.31;5028768;28;20041;-62
2021/12/23 06:19:35;;;;;;;27.00;17.85;;;;;;;2.06;67.15;102181.34;5028567;28;20398;-62
2021/12/23 06:22:02;;;;;;;29.55;19.20;;;;;;;2.06;67.12;102183.94;5028254;28;20049;-62
2021/12/23 06:24:28;;;;;;;29.70;17.92;;;;;;;2.11;67.12;102181.38;5028276;28;20053;-62
2021/12/23 06:26:55;;;;;;;29.73;18.35;;;;;;;2.12;66.82;102176.19;5027686;28;20079;-62
2021/12/23 06:29:22;;;;;;;35.72;20.35;;;;;;;2.02;67.23;102179.63;5028490;28;20453;-62
2021/12/23 06:31:49;;;;;;;34.58;22.20;;;;;;;2.02;67.08;102169.28;5028554;28;20041;-62
2021/12/23 06:34:15;;;;;;;36.22;22.05;;;;;;;2.05;67.25;102174.44;5020696;28;20521;-63
2021/12/23 06:36:44;;;;;;;58.25;35.60;;;;;;;1.95;67.45;102164.94;5027740;28;20100;-62
2021/12/23 06:39:11;;;;;;;50.13;32.00;;;;;;;1.91;67.58;102166.66;5008627;28;20049;-61
2021/12/23 06:41:37;;;;;;;36.58;23.85;;;;;;;2.02;67.32;102158.91;5008396;28;20049;-61
2021/12/23 06:44:04;;;;;;;47.38;31.58;;;;;;;2.08;67.12;102171.00;5007461;28;20138;-62
2021/12/23 06:46:31;;;;;;;30.33;20.55;;;;;;;2.07;67.08;102164.09;5008242;28;20053;-62
2021/12/23 06:48:58;;;;;;;37.25;23.38;;;;;;;2.04;67.08;102157.19;5008272;28;20052;-61
2021/12/23 06:51:27;;;;;;;36.05;23.88;;;;;;;2.01;67.43;102156.34;5008367;28;20042;-62
2021/12/23 06:53:54;;;;;;;32.50;21.90;;;;;;;1.89;67.60;102155.44;5008578;28;20069;-61
2021/12/23 06:56:21;;;;;;;81.05;50.45;;;;;;;1.89;67.86;102154.56;5014771;28;20095;-61
2021/12/23 06:58:49;;;;;;;43.20;27.90;;;;;;;1.96;67.66;102146.81;5022860;28;20473;-62
2021/12/23 07:01:18;;;;;;;34.53;22.58;;;;;;;1.96;67.62;102148.53;5023613;28;20076;-62
2021/12/23 07:06:32;;;;;;;165.80;82.07;;;;;;;1.93;67.84;102144.22;5029133;28;20056;-62
2021/12/23 07:09:00;;;;;;;154.30;83.15;;;;;;;1.89;67.78;102142.50;5029322;28;20103;-61
2021/12/23 07:11:32;;;;;;;91.28;50.85;;;;;;;1.96;67.46;102157.16;5025368;28;20042;-62
2021/12/23 07:13:59;;;;;;;79.07;39.40;;;;;;;1.91;67.69;102151.13;5030369;28;20073;-62
2021/12/23 07:16:26;;;;;;;144.18;65.75;;;;;;;1.95;67.72;102158.03;5010511;28;20127;-62
2021/12/23 07:18:52;;;;;;;357.77;156.07;;;;;;;1.94;68.10;102148.56;5010945;28;20049;-62
2021/12/23 07:21:19;;;;;;;270.02;114.80;;;;;;;1.92;67.97;102146.81;5012468;28;20046;-62
2021/12/23 07:23:46;;;;;;;209.52;93.95;;;;;;;2.00;67.71;102152.00;5025133;28;20045;-63
2021/12/23 07:26:15;;;;;;;164.55;71.90;;;;;;;2.02;67.83;102148.56;5015065;28;20068;-62
2021/12/23 07:28:43;;;;;;;84.47;40.30;;;;;;;2.02;67.73;102140.78;5010817;28;20042;-62
2021/12/23 07:31:10;;;;;;;54.15;28.23;;;;;;;1.99;67.88;102139.91;5009652;28;20042;-62
2021/12/23 07:33:37;;;;;;;48.88;26.58;;;;;;;2.04;67.77;102140.78;5010879;28;20049;-61
2021/12/23 07:36:05;;;;;;;83.20;40.33;;;;;;;2.08;67.83;102142.50;5010551;28;20076;-62
2021/12/23 07:38:33;;;;;;;77.03;39.13;;;;;;;2.13;67.83;102140.78;5025923;28;20054;-62
2021/12/23 07:41:00;;;;;;;88.28;44.22;;;;;;;2.14;67.62;102144.25;5030314;28;20049;-62
2021/12/23 07:46:05;;;;;;;42.55;24.38;;;;;;;2.15;67.80;102138.22;5049234;28;20107;-62
2021/12/23 07:48:36;;;;;;;88.20;44.42;;;;;;;2.23;67.88;102137.34;5039577;28;20046;-62
2021/12/23 07:51:06;;;;;;;35.75;22.23;;;;;;;2.20;68.08;102132.19;5029766;28;20732;-62
2021/12/23 07:53:33;;;;;;;52.92;28.95;;;;;;;2.27;67.97;102122.69;5027579;28;20060;-61
2021/12/23 07:56:03;;;;;;;309.75;124.03;;;;;;;2.28;68.00;102120.06;5030743;28;20088;-62
2021/12/23 07:58:34;;;;;;;41.10;24.00;;;;;;;2.35;67.92;102131.31;5030085;28;20052;-61
2021/12/23 08:01:00;;;;;;;44.80;29.00;;;;;;;2.37;67.98;102127.00;5030068;28;20733;-62
2021/12/23 08:03:33;;;;;;;43.90;26.23;;;;;;;2.44;67.87;102123.53;5030380;28;20589;-62
2021/12/23 08:06:00;;;;;;;59.55;33.17;;;;;;;2.39;68.02;102120.09;5028683;28;20065;-61
2021/12/23 08:08:27;;;;;;;33.13;21.52;;;;;;;2.36;68.29;102124.41;5030106;28;20406;-61
2021/12/23 08:10:54;;;;;;;53.22;32.03;;;;;;;2.39;68.31;102129.59;5029196;28;20391;-63
2021/12/23 08:13:21;;;;;;;38.60;24.77;;;;;;;2.40;68.29;102123.53;5029727;28;20494;-65
2021/12/23 08:15:47;;;;;;;67.38;36.80;;;;;;;2.44;68.53;102123.53;5029645;28;20049;-61
2021/12/23 08:18:16;;;;;;;39.60;24.83;;;;;;;2.45;68.41;102116.63;5030004;28;20091;-61
2021/12/23 08:20:42;;;;;;;49.78;30.73;;;;;;;2.36;68.70;102114.94;5027797;28;20056;-60
2021/12/23 08:23:09;;;;;;;32.42;21.02;;;;;;;2.35;69.00;102122.66;5029367;28;20045;-61
2021/12/23 08:25:36;;;;;;;46.38;27.50;;;;;;;2.42;68.59;102120.06;5029311;28;20521;-64
2021/12/23 08:28:03;;;;;;;40.40;24.83;;;;;;;2.30;69.11;102117.50;5029463;28;20056;-63
2021/12/23 08:30:34;;;;;;;50.70;28.30;;;;;;;2.30;69.28;102120.09;5029474;28;20056;-61
2021/12/23 08:33:02;;;;;;;45.00;26.35;;;;;;;2.38;69.18;102122.69;5029985;28;20081;-63
2021/12/23 08:35:28;;;;;;;37.17;23.33;;;;;;;2.38;69.80;102123.53;5029609;28;20049;-63
2021/12/23 08:37:55;;;;;;;51.65;31.13;;;;;;;2.50;69.39;102121.81;5027829;28;20061;-63
2021/12/23 08:40:25;;;;;;;40.28;25.90;;;;;;;2.59;69.59;102117.50;5028897;28;20045;-63
2021/12/23 08:42:53;;;;;;;59.83;34.35;;;;;;;2.57;69.59;102116.63;5029121;28;20494;-62
2021/12/23 08:45:24;;;;;;;60.85;33.35;;;;;;;2.53;69.60;102114.06;5040434;28;20057;-62
2021/12/23 08:47:54;;;;;;;95.50;46.65;;;;;;;2.47;69.80;102114.91;5047151;28;20067;-62
2021/12/23 08:50:28;;;;;;;60.40;31.08;;;;;;;2.51;69.78;102118.34;5044604;28;20064;-62
2021/12/23 08:52:59;;;;;;;53.38;28.35;;;;;;;2.59;69.70;102114.03;5044380;28;20494;-61
2021/12/23 08:55:31;;;;;;;;;;;;;;;2.52;69.76;102117.50;5043477;28;20120;-61
2021/12/23 08:58:03;;;;;;;83.82;40.80;;;;;;;2.61;69.67;102107.13;5046339;28;19974;-63
2021/12/23 09:00:33;;;;;;;74.18;39.72;;;;;;;2.50;69.75;102121.81;5045836;28;20052;-64
2021/12/23 09:03:00;;;;;;;64.07;36.80;;;;;;;2.58;69.43;102122.69;5044119;28;20707;-64
2021/12/23 09:05:27;;;;;;;47.17;25.98;;;;;;;2.56;69.49;102120.06;5045934;28;20045;-64
2021/12/23 09:07:54;;;;;;;44.47;27.25;;;;;;;2.64;69.78;102126.97;5044126;28;20064;-63
2021/12/23 09:10:21;;;;;;;67.57;40.88;;;;;;;2.74;69.39;102126.97;5042892;28;20543;-64
2021/12/23 09:12:48;;;;;;;51.13;30.20;;;;;;;2.81;69.14;102120.06;5045832;28;20132;-62
2021/12/23 09:15:15;;;;;;;43.63;25.52;;;;;;;2.97;68.89;102117.41;5042712;28;20045;-62
2021/12/23 09:17:43;;;;;;;42.30;25.50;;;;;;;3.03;68.50;102118.25;5045636;28;20056;-63
2021/12/23 09:20:11;;;;;;;34.05;22.45;;;;;;;3.04;68.54;102116.53;5044441;28;20048;-63
2021/12/23 09:22:38;;;;;;;35.28;21.58;;;;;;;2.98;69.05;102116.56;5044721;28;20044;-63
2021/12/23 09:25:18;;;;;;;33.20;21.23;;;;;;;3.00;68.92;102113.09;5043511;28;20493;-63
2021/12/23 09:33:18;;;;;;;38.55;22.15;;;;;;;3.12;68.60;102129.47;5046715;28;20037;-63
2021/12/23 09:35:52;;;;;;;43.50;27.05;;;;;;;3.12;68.45;102124.28;5047698;28;20119;-64
2021/12/23 09:38:27;;;;;;;38.45;23.33;;;;;;;3.12;68.73;102124.28;5042480;28;20068;-63
2021/12/23 09:41:10;;;;;;;51.30;26.50;;;;;;;3.11;68.84;102115.63;5045209;28;20044;-62
2021/12/23 09:43:39;;;;;;;51.70;27.70;;;;;;;3.14;68.65;102107.84;5043112;28;20887;-63
2021/12/23 09:46:12;;;;;;;38.50;22.42;;;;;;;3.25;68.29;102108.69;5046462;28;20049;-63
2021/12/23 09:48:42;;;;;;;43.95;24.90;;;;;;;3.24;68.30;102119.06;5045781;28;20128;-63
2021/12/23 09:51:12;;;;;;;59.65;32.13;;;;;;;3.37;68.47;102114.69;5044750;28;20465;-62
2021/12/23 09:53:42;;;;;;;52.83;26.30;;;;;;;3.63;67.79;102114.56;5044608;28;20103;-62
2021/12/23 09:56:09;;;;;;;36.80;21.95;;;;;;;3.62;67.36;102109.38;5045001;28;20132;-63
2021/12/23 09:58:36;;;;;;;66.40;29.80;;;;;;;3.53;68.18;102110.28;5042017;28;20050;-62
2021/12/23 10:01:04;;;;;;;38.75;22.83;;;;;;;3.46;67.96;102108.59;5046562;28;20100;-63
2021/12/23 10:03:31;;;;;;;212.52;105.93;;;;;;;3.50;68.07;102105.09;5044891;28;20122;-63
2021/12/23 10:05:59;;;;;;;418.98;199.07;;;;;;;3.34;68.38;102094.81;5042683;28;20037;-62
2021/12/23 10:08:29;;;;;;;145.98;85.68;;;;;;;3.34;68.64;102093.94;5044963;28;20052;-63
2021/12/23 10:11:04;;;;;;;52.05;30.15;;;;;;;3.42;68.53;102093.03;5039439;28;20053;-62
2021/12/23 10:30:55;;;;;;;62.50;38.08;;;;;;;3.09;70.12;102088.84;5038802;28;20045;-63
2021/12/23 10:38:44;;;;;;;51.78;29.63;;;;;;;3.00;70.19;102074.19;5030789;28;20497;-63
2021/12/23 10:41:16;;;;;;;;;;;;;;;3.04;70.25;102072.44;5025615;28;20042;-62
2021/12/23 10:43:46;;;;;;;50.75;30.85;;;;;;;3.02;70.25;102069.88;5031008;28;19929;-61
2021/12/23 10:46:17;;;;;;;85.60;49.63;;;;;;;3.02;70.30;102075.06;5024562;28;20413;-62
2021/12/23 10:49:05;;;;;;;163.63;78.85;;;;;;;3.09;70.16;102068.13;5031213;28;20049;-62
2021/12/23 10:52:09;;;;;;;67.28;36.30;;;;;;;3.10;70.02;102062.06;5028362;28;20051;-62
2021/12/23 11:00:19;;;;;;;47.13;27.67;;;;;;;2.92;70.53;102070.75;5026760;28;20484;-62
2021/12/23 11:03:16;;;;;;;48.75;28.70;;;;;;;3.17;70.39;102066.34;5033184;28;20041;-63
2021/12/23 11:06:00;;;;;;;39.05;25.33;;;;;;;3.24;69.75;102054.22;5034752;28;20073;-63
2021/12/23 11:08:50;;;;;;;49.53;28.45;;;;;;;3.23;69.65;102058.53;5020948;28;20081;-63
2021/12/23 11:40:03;;;;;;;182.68;100.85;;;;;;;3.79;69.96;102008.03;5043492;28;20098;-64
2021/12/23 11:45:17;;;;;;;121.55;78.13;;;;;;;3.92;69.87;102004.44;5023630;28;20045;-62
2021/12/23 11:47:45;;;;;;;67.65;44.55;;;;;;;3.79;70.04;101998.50;5029521;28;20108;-62
2021/12/23 11:50:19;;;;;;;61.65;41.35;;;;;;;3.90;70.17;101996.66;5036869;28;20494;-61
2021/12/23 11:52:47;;;;;;;55.00;34.38;;;;;;;3.88;70.25;102001.00;5038558;28;20052;-62
2021/12/23 11:55:15;;;;;;;63.75;41.75;;;;;;;3.85;70.70;101982.00;5027672;28;20132;-62
2021/12/23 11:57:43;;;;;;;46.60;29.92;;;;;;;3.76;70.61;101980.34;5029090;28;20540;-62
2021/12/23 12:02:40;;;;;;;55.92;33.67;;;;;;;3.66;71.10;101984.75;5028795;28;20056;-62
2021/12/23 12:05:15;;;;;;;47.67;28.45;;;;;;;3.67;71.49;101981.28;5030224;28;20056;-63
2021/12/23 12:07:42;;;;;;;23.50;15.38;;;;;;;4.90;69.51;101973.94;5028241;28;20054;-61
2021/12/23 12:10:21;;;;;;;40.85;25.70;;;;;;;5.42;67.35;101968.88;5025424;28;20049;-61
2021/12/23 12:13:05;;;;;;;57.33;36.10;;;;;;;4.94;69.19;101960.88;5037449;28;20052;-61
2021/12/23 12:15:38;;;;;;;79.05;48.90;;;;;;;4.57;69.92;101962.22;5031781;28;20046;-61
2021/12/23 12:18:10;;;;;;;40.63;25.98;;;;;;;4.35;70.65;101965.06;5032519;28;20043;-62
2021/12/23 12:20:49;;;;;;;83.25;52.05;;;;;;;4.24;70.67;101962.59;5043906;28;20041;-62
2021/12/23 12:23:41;;;;;;;54.38;35.08;;;;;;;4.20;70.83;101962.63;5034111;28;20046;-62
2021/12/23 12:26:11;;;;;;;51.45;29.90;;;;;;;4.06;71.19;101944.56;5044193;28;20053;-62
2021/12/23 12:28:46;;;;;;;91.72;53.10;;;;;;;3.92;71.50;101942.13;5039428;28;20064;-62
2021/12/23 12:31:23;;;;;;;69.38;43.33;;;;;;;3.93;72.00;101928.25;5034356;28;20082;-62
2021/12/23 12:34:08;;;;;;;96.80;53.83;;;;;;;3.96;71.68;101920.47;5032379;28;20133;-62
2021/12/23 12:36:48;;;;;;;71.38;40.63;;;;;;;4.02;71.31;101909.97;5031591;28;20508;-62
2021/12/23 12:39:24;;;;;;;107.03;57.65;;;;;;;4.13;71.43;101901.25;5031908;28;20489;-66
2021/12/23 12:42:05;;;;;;;71.32;38.75;;;;;;;4.15;71.38;101896.88;5032949;28;20103;-61
2021/12/23 12:44:43;;;;;;;120.47;67.07;;;;;;;4.04;71.42;101910.84;5033398;28;20049;-62
2021/12/23 12:47:22;;;;;;;66.95;37.85;;;;;;;4.08;71.74;101898.69;5021003;28;20045;-61